sensor_id;sensor_type;location;lat;lon;timestamp;temperature;humidity
22290;DHT22;11313;50.116;8.424;2023-06-22T00:01:53;24.40;54.30
22290;DHT22;11313;50.116;8.424;2023-06-22T00:04:18;24.40;54.30
22290;DHT22;11313;50.116;8.424;2023-06-22T00:06:44;24.40;54.30
22290;DHT22;11313;50.116;8.424;2023-06-22T00:09:09;24.40;54.30
22290;DHT22;11313;50.116;8.424;2023-06-22T00:11:36;24.40;54.40
22290;DHT22;11313;50.116;8.424;2023-06-22T00:14:03;24.40;54.30
22290;DHT22;11313;50.116;8.424;2023-06-22T00:16:28;24.40;54.40
22290;DHT22;11313;50.116;8.424;2023-06-22T00:18:54;24.40;54.30
22290;DHT22;11313;50.116;8.424;2023-06-22T00:21:20;24.40;54.30
22290;DHT22;11313;50.116;8.424;2023-06-22T00:23:46;24.40;54.30
22290;DHT22;11313;50.116;8.424;2023-06-22T00:26:12;24.40;54.40
22290;DHT22;11313;50.116;8.424;2023-06-22T00:28:38;24.40;54.50
22290;DHT22;11313;50.116;8.424;2023-06-22T00:31:03;24.40;54.50
22290;DHT22;11313;50.116;8.424;2023-06-22T00:33:29;24.40;54.40
22290;DHT22;11313;50.116;8.424;2023-06-22T00:35:54;24.40;54.50
22290;DHT22;11313;50.116;8.424;2023-06-22T00:38:20;24.40;54.50
22290;DHT22;11313;50.116;8.424;2023-06-22T00:40:46;24.40;54.40
22290;DHT22;11313;50.116;8.424;2023-06-22T00:43:11;24.40;54.40
22290;DHT22;11313;50.116;8.424;2023-06-22T00:45:38;24.40;54.40
22290;DHT22;11313;50.116;8.424;2023-06-22T00:48:03;24.40;54.40
22290;DHT22;11313;50.116;8.424;2023-06-22T00:50:32;24.40;54.40
22290;DHT22;11313;50.116;8.424;2023-06-22T00:53:06;24.40;54.40
22290;DHT22;11313;50.116;8.424;2023-06-22T00:55:45;24.40;54.40
22290;DHT22;11313;50.116;8.424;2023-06-22T00:58:16;24.40;54.40
22290;DHT22;11313;50.116;8.424;2023-06-22T01:00:42;24.40;54.40
22290;DHT22;11313;50.116;8.424;2023-06-22T01:03:08;24.40;54.50
22290;DHT22;11313;50.116;8.424;2023-06-22T01:05:34;24.40;54.40
22290;DHT22;11313;50.116;8.424;2023-06-22T01:08:26;24.40;54.40
22290;DHT22;11313;50.116;8.424;2023-06-22T01:11:07;24.40;54.50
22290;DHT22;11313;50.116;8.424;2023-06-22T01:14:03;24.40;54.50
22290;DHT22;11313;50.116;8.424;2023-06-22T01:16:30;24.40;54.60
22290;DHT22;11313;50.116;8.424;2023-06-22T01:19:00;24.40;54.50
22290;DHT22;11313;50.116;8.424;2023-06-22T01:21:28;24.40;54.50
22290;DHT22;11313;50.116;8.424;2023-06-22T01:24:08;24.40;54.50
22290;DHT22;11313;50.116;8.424;2023-06-22T01:29:43;24.40;54.50
22290;DHT22;11313;50.116;8.424;2023-06-22T01:32:10;24.40;54.50
22290;DHT22;11313;50.116;8.424;2023-06-22T01:34:38;24.40;54.50
22290;DHT22;11313;50.116;8.424;2023-06-22T01:37:06;24.40;54.50
22290;DHT22;11313;50.116;8.424;2023-06-22T01:39:32;24.40;54.50
22290;DHT22;11313;50.116;8.424;2023-06-22T01:41:59;24.40;54.50
22290;DHT22;11313;50.116;8.424;2023-06-22T01:44:25;24.40;54.40
22290;DHT22;11313;50.116;8.424;2023-06-22T01:46:52;24.40;54.40
22290;DHT22;11313;50.116;8.424;2023-06-22T01:49:18;24.40;54.40
22290;DHT22;11313;50.116;8.424;2023-06-22T01:51:43;24.40;54.40
22290;DHT22;11313;50.116;8.424;2023-06-22T01:54:09;24.40;54.50
22290;DHT22;11313;50.116;8.424;2023-06-22T01:56:35;24.40;54.50
22290;DHT22;11313;50.116;8.424;2023-06-22T01:59:17;24.40;54.50
22290;DHT22;11313;50.116;8.424;2023-06-22T02:01:50;24.40;54.50
22290;DHT22;11313;50.116;8.424;2023-06-22T02:04:23;24.40;54.50
22290;DHT22;11313;50.116;8.424;2023-06-22T02:06:52;24.40;54.50
22290;DHT22;11313;50.116;8.424;2023-06-22T02:09:20;24.40;54.50
22290;DHT22;11313;50.116;8.424;2023-06-22T02:11:47;24.40;54.50
22290;DHT22;11313;50.116;8.424;2023-06-22T02:14:17;24.40;54.50
22290;DHT22;11313;50.116;8.424;2023-06-22T02:16:43;24.40;54.50
22290;DHT22;11313;50.116;8.424;2023-06-22T02:19:08;24.40;54.50
22290;DHT22;11313;50.116;8.424;2023-06-22T02:21:34;24.40;54.50
22290;DHT22;11313;50.116;8.424;2023-06-22T02:23:59;24.40;54.50
22290;DHT22;11313;50.116;8.424;2023-06-22T02:26:26;24.40;54.60
22290;DHT22;11313;50.116;8.424;2023-06-22T02:28:52;24.40;54.50
22290;DHT22;11313;50.116;8.424;2023-06-22T02:31:18;24.40;54.50
22290;DHT22;11313;50.116;8.424;2023-06-22T02:33:43;24.40;54.50
22290;DHT22;11313;50.116;8.424;2023-06-22T02:36:10;24.40;54.50
22290;DHT22;11313;50.116;8.424;2023-06-22T02:38:38;24.40;54.50
22290;DHT22;11313;50.116;8.424;2023-06-22T02:41:04;24.50;54.60
22290;DHT22;11313;50.116;8.424;2023-06-22T02:43:30;24.50;54.60
22290;DHT22;11313;50.116;8.424;2023-06-22T02:45:55;24.40;54.50
22290;DHT22;11313;50.116;8.424;2023-06-22T02:48:21;24.50;54.60
22290;DHT22;11313;50.116;8.424;2023-06-22T02:50:46;24.50;54.60
22290;DHT22;11313;50.116;8.424;2023-06-22T02:53:12;24.50;54.70
22290;DHT22;11313;50.116;8.424;2023-06-22T02:55:37;24.50;54.70
22290;DHT22;11313;50.116;8.424;2023-06-22T02:58:05;24.50;54.60
22290;DHT22;11313;50.116;8.424;2023-06-22T03:00:31;24.40;54.60
22290;DHT22;11313;50.116;8.424;2023-06-22T03:02:57;24.50;54.60
22290;DHT22;11313;50.116;8.424;2023-06-22T03:05:23;24.50;54.60
22290;DHT22;11313;50.116;8.424;2023-06-22T03:07:49;24.50;54.60
22290;DHT22;11313;50.116;8.424;2023-06-22T03:10:15;24.50;54.60
22290;DHT22;11313;50.116;8.424;2023-06-22T03:12:42;24.50;54.60
22290;DHT22;11313;50.116;8.424;2023-06-22T03:15:09;24.50;54.60
22290;DHT22;11313;50.116;8.424;2023-06-22T03:17:36;24.50;54.60
22290;DHT22;11313;50.116;8.424;2023-06-22T03:20:03;24.50;54.60
22290;DHT22;11313;50.116;8.424;2023-06-22T03:22:40;24.50;54.60
22290;DHT22;11313;50.116;8.424;2023-06-22T03:25:07;24.50;54.60
22290;DHT22;11313;50.116;8.424;2023-06-22T03:27:42;24.50;54.60
22290;DHT22;11313;50.116;8.424;2023-06-22T03:30:10;24.50;54.60
22290;DHT22;11313;50.116;8.424;2023-06-22T03:32:36;24.50;54.60
22290;DHT22;11313;50.116;8.424;2023-06-22T03:35:02;24.50;54.60
22290;DHT22;11313;50.116;8.424;2023-06-22T03:37:28;24.50;54.60
22290;DHT22;11313;50.116;8.424;2023-06-22T03:39:54;24.50;54.60
22290;DHT22;11313;50.116;8.424;2023-06-22T03:42:20;24.50;54.60
22290;DHT22;11313;50.116;8.424;2023-06-22T03:44:46;24.50;54.60
22290;DHT22;11313;50.116;8.424;2023-06-22T03:47:12;24.50;54.60
22290;DHT22;11313;50.116;8.424;2023-06-22T03:49:38;24.50;54.60
22290;DHT22;11313;50.116;8.424;2023-06-22T03:52:03;24.50;54.60
22290;DHT22;11313;50.116;8.424;2023-06-22T03:54:30;24.50;54.50
22290;DHT22;11313;50.116;8.424;2023-06-22T03:56:57;24.50;54.60
22290;DHT22;11313;50.116;8.424;2023-06-22T03:59:23;24.50;54.50
22290;DHT22;11313;50.116;8.424;2023-06-22T04:01:49;24.50;54.50
22290;DHT22;11313;50.116;8.424;2023-06-22T04:04:16;24.50;54.60
22290;DHT22;11313;50.116;8.424;2023-06-22T04:06:41;24.50;54.60
22290;DHT22;11313;50.116;8.424;2023-06-22T04:09:07;24.50;54.50
22290;DHT22;11313;50.116;8.424;2023-06-22T04:11:32;24.50;54.50
22290;DHT22;11313;50.116;8.424;2023-06-22T04:13:58;24.50;54.50
22290;DHT22;11313;50.116;8.424;2023-06-22T04:16:23;24.50;54.60
22290;DHT22;11313;50.116;8.424;2023-06-22T04:18:49;24.50;54.50
22290;DHT22;11313;50.116;8.424;2023-06-22T04:21:14;24.50;54.60
22290;DHT22;11313;50.116;8.424;2023-06-22T04:23:40;24.50;54.70
22290;DHT22;11313;50.116;8.424;2023-06-22T04:26:05;24.50;55.60
22290;DHT22;11313;50.116;8.424;2023-06-22T04:28:31;24.50;55.80
22290;DHT22;11313;50.116;8.424;2023-06-22T04:31:01;24.50;55.80
22290;DHT22;11313;50.116;8.424;2023-06-22T04:33:28;24.50;55.60
22290;DHT22;11313;50.116;8.424;2023-06-22T04:35:55;24.50;55.30
22290;DHT22;11313;50.116;8.424;2023-06-22T04:38:22;24.40;55.00
22290;DHT22;11313;50.116;8.424;2023-06-22T04:40:48;24.40;54.90
22290;DHT22;11313;50.116;8.424;2023-06-22T04:43:14;24.40;54.70
22290;DHT22;11313;50.116;8.424;2023-06-22T04:45:39;24.40;54.70
22290;DHT22;11313;50.116;8.424;2023-06-22T04:48:05;24.40;54.80
22290;DHT22;11313;50.116;8.424;2023-06-22T04:50:31;24.40;54.90
22290;DHT22;11313;50.116;8.424;2023-06-22T04:52:56;24.30;55.00
22290;DHT22;11313;50.116;8.424;2023-06-22T04:55:23;24.40;55.30
22290;DHT22;11313;50.116;8.424;2023-06-22T04:57:51;24.40;55.50
22290;DHT22;11313;50.116;8.424;2023-06-22T05:00:18;24.40;55.70
22290;DHT22;11313;50.116;8.424;2023-06-22T05:02:45;24.30;55.70
22290;DHT22;11313;50.116;8.424;2023-06-22T05:05:12;24.30;55.80
22290;DHT22;11313;50.116;8.424;2023-06-22T05:10:09;24.30;56.00
22290;DHT22;11313;50.116;8.424;2023-06-22T05:12:35;24.30;56.00
22290;DHT22;11313;50.116;8.424;2023-06-22T05:15:01;24.30;56.10
22290;DHT22;11313;50.116;8.424;2023-06-22T05:17:27;24.30;56.20
22290;DHT22;11313;50.116;8.424;2023-06-22T05:19:52;24.30;56.20
22290;DHT22;11313;50.116;8.424;2023-06-22T05:22:18;24.30;56.50
22290;DHT22;11313;50.116;8.424;2023-06-22T05:24:44;24.30;56.80
22290;DHT22;11313;50.116;8.424;2023-06-22T05:27:10;24.30;57.40
22290;DHT22;11313;50.116;8.424;2023-06-22T05:29:39;24.30;57.30
22290;DHT22;11313;50.116;8.424;2023-06-22T05:32:05;24.30;57.30
22290;DHT22;11313;50.116;8.424;2023-06-22T05:34:30;24.30;57.30
22290;DHT22;11313;50.116;8.424;2023-06-22T05:36:56;24.30;57.50
22290;DHT22;11313;50.116;8.424;2023-06-22T05:39:24;24.30;57.40
22290;DHT22;11313;50.116;8.424;2023-06-22T05:41:49;24.30;57.80
22290;DHT22;11313;50.116;8.424;2023-06-22T05:44:15;24.30;58.10
22290;DHT22;11313;50.116;8.424;2023-06-22T05:46:42;24.40;58.00
22290;DHT22;11313;50.116;8.424;2023-06-22T05:49:14;24.40;58.00
22290;DHT22;11313;50.116;8.424;2023-06-22T05:51:41;24.40;58.20
22290;DHT22;11313;50.116;8.424;2023-06-22T05:54:07;24.40;58.30
22290;DHT22;11313;50.116;8.424;2023-06-22T05:56:34;24.40;58.30
22290;DHT22;11313;50.116;8.424;2023-06-22T05:58:59;24.40;58.00
22290;DHT22;11313;50.116;8.424;2023-06-22T06:01:25;24.50;57.90
22290;DHT22;11313;50.116;8.424;2023-06-22T06:03:51;24.40;57.70
22290;DHT22;11313;50.116;8.424;2023-06-22T06:06:18;24.50;57.60
22290;DHT22;11313;50.116;8.424;2023-06-22T06:08:46;24.50;57.50
22290;DHT22;11313;50.116;8.424;2023-06-22T06:11:12;24.50;57.20
22290;DHT22;11313;50.116;8.424;2023-06-22T06:13:37;24.50;57.10
22290;DHT22;11313;50.116;8.424;2023-06-22T06:16:03;24.50;57.10
22290;DHT22;11313;50.116;8.424;2023-06-22T06:18:28;24.50;56.90
22290;DHT22;11313;50.116;8.424;2023-06-22T06:20:54;24.50;56.80
22290;DHT22;11313;50.116;8.424;2023-06-22T06:23:19;24.50;56.60
22290;DHT22;11313;50.116;8.424;2023-06-22T06:25:45;24.50;56.60
22290;DHT22;11313;50.116;8.424;2023-06-22T06:28:10;24.50;56.50
22290;DHT22;11313;50.116;8.424;2023-06-22T06:30:36;24.50;56.50
22290;DHT22;11313;50.116;8.424;2023-06-22T06:33:02;24.50;56.40
22290;DHT22;11313;50.116;8.424;2023-06-22T06:35:28;24.50;56.60
22290;DHT22;11313;50.116;8.424;2023-06-22T06:37:53;24.50;56.70
22290;DHT22;11313;50.116;8.424;2023-06-22T06:40:19;24.50;56.80
22290;DHT22;11313;50.116;8.424;2023-06-22T06:42:48;24.50;56.80
22290;DHT22;11313;50.116;8.424;2023-06-22T06:45:22;24.50;56.80
22290;DHT22;11313;50.116;8.424;2023-06-22T06:47:49;24.50;55.70
22290;DHT22;11313;50.116;8.424;2023-06-22T06:50:15;24.40;54.30
22290;DHT22;11313;50.116;8.424;2023-06-22T06:52:40;24.30;53.70
22290;DHT22;11313;50.116;8.424;2023-06-22T06:55:07;24.20;53.50
22290;DHT22;11313;50.116;8.424;2023-06-22T06:57:35;24.10;53.20
22290;DHT22;11313;50.116;8.424;2023-06-22T07:00:03;24.00;53.00
22290;DHT22;11313;50.116;8.424;2023-06-22T07:02:34;24.00;52.90
22290;DHT22;11313;50.116;8.424;2023-06-22T07:05:00;23.90;52.50
22290;DHT22;11313;50.116;8.424;2023-06-22T07:07:29;23.90;52.30
22290;DHT22;11313;50.116;8.424;2023-06-22T07:09:55;23.90;52.00
22290;DHT22;11313;50.116;8.424;2023-06-22T07:12:20;23.80;51.80
22290;DHT22;11313;50.116;8.424;2023-06-22T07:14:46;23.80;52.00
22290;DHT22;11313;50.116;8.424;2023-06-22T07:17:11;23.80;52.10
22290;DHT22;11313;50.116;8.424;2023-06-22T07:19:37;23.70;51.80
22290;DHT22;11313;50.116;8.424;2023-06-22T07:22:03;23.70;51.70
22290;DHT22;11313;50.116;8.424;2023-06-22T07:24:28;23.70;51.90
22290;DHT22;11313;50.116;8.424;2023-06-22T07:26:54;23.70;52.10
22290;DHT22;11313;50.116;8.424;2023-06-22T07:29:20;23.70;52.30
22290;DHT22;11313;50.116;8.424;2023-06-22T07:31:47;23.70;52.70
22290;DHT22;11313;50.116;8.424;2023-06-22T07:34:13;23.70;53.10
22290;DHT22;11313;50.116;8.424;2023-06-22T07:36:38;23.70;53.60
22290;DHT22;11313;50.116;8.424;2023-06-22T07:39:04;23.70;53.90
22290;DHT22;11313;50.116;8.424;2023-06-22T07:41:30;23.70;54.00
22290;DHT22;11313;50.116;8.424;2023-06-22T07:43:56;23.70;54.10
22290;DHT22;11313;50.116;8.424;2023-06-22T07:46:21;23.70;54.50
22290;DHT22;11313;50.116;8.424;2023-06-22T07:48:47;23.70;54.80
22290;DHT22;11313;50.116;8.424;2023-06-22T07:51:12;23.70;54.90
22290;DHT22;11313;50.116;8.424;2023-06-22T07:53:43;23.80;55.10
22290;DHT22;11313;50.116;8.424;2023-06-22T07:56:13;23.70;55.00
22290;DHT22;11313;50.116;8.424;2023-06-22T07:58:39;23.70;55.10
22290;DHT22;11313;50.116;8.424;2023-06-22T08:01:05;23.70;55.20
22290;DHT22;11313;50.116;8.424;2023-06-22T08:03:31;23.70;55.20
22290;DHT22;11313;50.116;8.424;2023-06-22T08:05:57;23.70;55.30
22290;DHT22;11313;50.116;8.424;2023-06-22T08:08:23;23.70;55.30
22290;DHT22;11313;50.116;8.424;2023-06-22T08:10:48;23.70;55.40
22290;DHT22;11313;50.116;8.424;2023-06-22T08:13:14;23.70;55.40
22290;DHT22;11313;50.116;8.424;2023-06-22T08:15:39;23.70;55.40
22290;DHT22;11313;50.116;8.424;2023-06-22T08:18:05;23.70;55.50
22290;DHT22;11313;50.116;8.424;2023-06-22T08:20:30;23.70;55.50
22290;DHT22;11313;50.116;8.424;2023-06-22T08:22:56;23.70;55.50
22290;DHT22;11313;50.116;8.424;2023-06-22T08:25:25;23.70;55.70
22290;DHT22;11313;50.116;8.424;2023-06-22T08:27:51;23.70;56.10
22290;DHT22;11313;50.116;8.424;2023-06-22T08:30:16;23.70;56.60
22290;DHT22;11313;50.116;8.424;2023-06-22T08:32:44;23.80;57.20
22290;DHT22;11313;50.116;8.424;2023-06-22T08:35:09;23.80;57.50
22290;DHT22;11313;50.116;8.424;2023-06-22T08:37:35;23.80;57.60
22290;DHT22;11313;50.116;8.424;2023-06-22T08:40:03;23.80;57.60
22290;DHT22;11313;50.116;8.424;2023-06-22T08:42:34;23.90;57.70
22290;DHT22;11313;50.116;8.424;2023-06-22T08:44:59;23.90;57.80
22290;DHT22;11313;50.116;8.424;2023-06-22T08:47:26;23.90;57.80
22290;DHT22;11313;50.116;8.424;2023-06-22T08:49:52;23.90;58.00
22290;DHT22;11313;50.116;8.424;2023-06-22T08:52:18;23.90;57.90
22290;DHT22;11313;50.116;8.424;2023-06-22T08:54:45;23.90;57.90
22290;DHT22;11313;50.116;8.424;2023-06-22T08:57:11;23.90;58.00
22290;DHT22;11313;50.116;8.424;2023-06-22T08:59:36;23.90;58.00
22290;DHT22;11313;50.116;8.424;2023-06-22T09:02:01;23.90;58.00
22290;DHT22;11313;50.116;8.424;2023-06-22T09:04:27;23.90;58.00
22290;DHT22;11313;50.116;8.424;2023-06-22T09:06:53;23.90;58.00
22290;DHT22;11313;50.116;8.424;2023-06-22T09:09:18;23.90;57.90
22290;DHT22;11313;50.116;8.424;2023-06-22T09:11:44;23.90;57.90
22290;DHT22;11313;50.116;8.424;2023-06-22T09:14:11;23.90;57.90
22290;DHT22;11313;50.116;8.424;2023-06-22T09:16:36;23.90;57.90
22290;DHT22;11313;50.116;8.424;2023-06-22T09:19:02;23.90;57.90
22290;DHT22;11313;50.116;8.424;2023-06-22T09:21:28;23.90;57.90
22290;DHT22;11313;50.116;8.424;2023-06-22T09:23:54;23.90;57.90
22290;DHT22;11313;50.116;8.424;2023-06-22T09:26:20;23.90;57.90
22290;DHT22;11313;50.116;8.424;2023-06-22T09:28:46;23.90;57.90
22290;DHT22;11313;50.116;8.424;2023-06-22T09:31:12;23.90;58.50
22290;DHT22;11313;50.116;8.424;2023-06-22T09:33:39;23.90;57.90
22290;DHT22;11313;50.116;8.424;2023-06-22T09:36:05;23.90;57.90
22290;DHT22;11313;50.116;8.424;2023-06-22T09:38:34;23.90;58.00
22290;DHT22;11313;50.116;8.424;2023-06-22T09:41:00;23.90;58.00
22290;DHT22;11313;50.116;8.424;2023-06-22T09:43:26;23.90;58.00
22290;DHT22;11313;50.116;8.424;2023-06-22T09:45:52;23.90;58.00
22290;DHT22;11313;50.116;8.424;2023-06-22T09:48:17;23.90;58.00
22290;DHT22;11313;50.116;8.424;2023-06-22T09:50:43;23.90;57.90
22290;DHT22;11313;50.116;8.424;2023-06-22T09:53:08;24.00;57.80
22290;DHT22;11313;50.116;8.424;2023-06-22T09:55:34;24.00;56.70
22290;DHT22;11313;50.116;8.424;2023-06-22T09:57:59;24.00;56.50
22290;DHT22;11313;50.116;8.424;2023-06-22T10:00:25;24.00;56.30
22290;DHT22;11313;50.116;8.424;2023-06-22T10:02:52;24.10;56.00
22290;DHT22;11313;50.116;8.424;2023-06-22T10:05:17;24.10;55.70
22290;DHT22;11313;50.116;8.424;2023-06-22T10:07:43;24.00;55.60
22290;DHT22;11313;50.116;8.424;2023-06-22T10:10:10;24.10;55.60
22290;DHT22;11313;50.116;8.424;2023-06-22T10:15:34;24.10;55.70
22290;DHT22;11313;50.116;8.424;2023-06-22T10:18:06;24.10;56.00
22290;DHT22;11313;50.116;8.424;2023-06-22T10:20:56;24.10;56.00
22290;DHT22;11313;50.116;8.424;2023-06-22T10:23:29;24.10;56.00
22290;DHT22;11313;50.116;8.424;2023-06-22T10:25:55;24.10;55.90
22290;DHT22;11313;50.116;8.424;2023-06-22T10:28:41;24.20;56.00
22290;DHT22;11313;50.116;8.424;2023-06-22T10:31:12;24.10;55.90
22290;DHT22;11313;50.116;8.424;2023-06-22T10:33:43;24.20;56.00
22290;DHT22;11313;50.116;8.424;2023-06-22T10:36:22;24.10;55.90
22290;DHT22;11313;50.116;8.424;2023-06-22T10:38:53;24.10;55.80
22290;DHT22;11313;50.116;8.424;2023-06-22T10:41:29;24.20;56.00
22290;DHT22;11313;50.116;8.424;2023-06-22T10:43:57;24.20;55.90
22290;DHT22;11313;50.116;8.424;2023-06-22T10:46:26;24.20;55.90
22290;DHT22;11313;50.116;8.424;2023-06-22T10:48:57;24.20;55.90
22290;DHT22;11313;50.116;8.424;2023-06-22T10:51:27;24.20;55.70
22290;DHT22;11313;50.116;8.424;2023-06-22T10:53:53;24.10;54.50
22290;DHT22;11313;50.116;8.424;2023-06-22T10:56:21;24.10;53.40
22290;DHT22;11313;50.116;8.424;2023-06-22T10:58:49;23.90;52.60
22290;DHT22;11313;50.116;8.424;2023-06-22T11:01:15;23.80;52.30
22290;DHT22;11313;50.116;8.424;2023-06-22T11:03:40;23.70;51.80
22290;DHT22;11313;50.116;8.424;2023-06-22T11:06:06;23.60;51.50
22290;DHT22;11313;50.116;8.424;2023-06-22T11:08:31;23.50;51.00
22290;DHT22;11313;50.116;8.424;2023-06-22T11:10:57;23.40;50.60
22290;DHT22;11313;50.116;8.424;2023-06-22T11:13:22;23.40;50.30
22290;DHT22;11313;50.116;8.424;2023-06-22T11:15:53;23.30;50.20
22290;DHT22;11313;50.116;8.424;2023-06-22T11:18:18;23.20;50.50
22290;DHT22;11313;50.116;8.424;2023-06-22T11:20:44;23.10;50.90
22290;DHT22;11313;50.116;8.424;2023-06-22T11:23:12;23.10;51.10
22290;DHT22;11313;50.116;8.424;2023-06-22T11:25:43;23.10;51.40
22290;DHT22;11313;50.116;8.424;2023-06-22T11:28:09;23.30;51.90
22290;DHT22;11313;50.116;8.424;2023-06-22T11:30:34;23.30;52.00
22290;DHT22;11313;50.116;8.424;2023-06-22T11:33:00;23.30;52.00
22290;DHT22;11313;50.116;8.424;2023-06-22T11:35:26;23.30;52.00
22290;DHT22;11313;50.116;8.424;2023-06-22T11:37:54;23.40;52.10
22290;DHT22;11313;50.116;8.424;2023-06-22T11:40:21;23.50;52.70
22290;DHT22;11313;50.116;8.424;2023-06-22T11:42:51;23.50;53.00
22290;DHT22;11313;50.116;8.424;2023-06-22T11:45:22;23.50;53.30
22290;DHT22;11313;50.116;8.424;2023-06-22T11:47:50;23.60;53.80
22290;DHT22;11313;50.116;8.424;2023-06-22T11:50:15;23.50;53.80
22290;DHT22;11313;50.116;8.424;2023-06-22T11:52:51;23.60;54.10
22290;DHT22;11313;50.116;8.424;2023-06-22T11:55:19;23.60;54.30
22290;DHT22;11313;50.116;8.424;2023-06-22T11:57:57;23.60;54.40
22290;DHT22;11313;50.116;8.424;2023-06-22T12:00:33;23.60;54.50
22290;DHT22;11313;50.116;8.424;2023-06-22T12:02:58;23.60;54.70
22290;DHT22;11313;50.116;8.424;2023-06-22T12:05:24;23.60;54.80
22290;DHT22;11313;50.116;8.424;2023-06-22T12:07:57;23.60;54.90
22290;DHT22;11313;50.116;8.424;2023-06-22T12:10:23;23.60;55.00
22290;DHT22;11313;50.116;8.424;2023-06-22T12:12:54;23.60;55.00
22290;DHT22;11313;50.116;8.424;2023-06-22T12:15:19;23.60;55.10
22290;DHT22;11313;50.116;8.424;2023-06-22T12:17:45;23.70;55.20
22290;DHT22;11313;50.116;8.424;2023-06-22T12:20:11;23.60;55.20
22290;DHT22;11313;50.116;8.424;2023-06-22T12:22:37;23.60;55.30
22290;DHT22;11313;50.116;8.424;2023-06-22T12:25:05;23.60;55.30
22290;DHT22;11313;50.116;8.424;2023-06-22T12:27:34;23.60;55.30
22290;DHT22;11313;50.116;8.424;2023-06-22T12:30:00;23.60;55.30
22290;DHT22;11313;50.116;8.424;2023-06-22T12:32:28;23.60;55.40
22290;DHT22;11313;50.116;8.424;2023-06-22T12:34:53;23.70;55.60
22290;DHT22;11313;50.116;8.424;2023-06-22T12:37:29;23.70;55.50
22290;DHT22;11313;50.116;8.424;2023-06-22T12:39:57;23.60;55.50
22290;DHT22;11313;50.116;8.424;2023-06-22T12:42:25;23.70;55.60
22290;DHT22;11313;50.116;8.424;2023-06-22T12:44:53;23.60;55.60
22290;DHT22;11313;50.116;8.424;2023-06-22T12:47:21;23.70;55.80
22290;DHT22;11313;50.116;8.424;2023-06-22T12:49:49;23.70;55.80
22290;DHT22;11313;50.116;8.424;2023-06-22T12:52:15;23.70;55.80
22290;DHT22;11313;50.116;8.424;2023-06-22T12:54:54;23.70;55.80
22290;DHT22;11313;50.116;8.424;2023-06-22T12:57:25;23.70;55.80
22290;DHT22;11313;50.116;8.424;2023-06-22T13:00:02;23.70;55.90
22290;DHT22;11313;50.116;8.424;2023-06-22T13:02:35;23.70;56.00
22290;DHT22;11313;50.116;8.424;2023-06-22T13:05:01;23.70;56.00
22290;DHT22;11313;50.116;8.424;2023-06-22T13:07:27;23.70;56.00
22290;DHT22;11313;50.116;8.424;2023-06-22T13:09:57;23.70;56.00
22290;DHT22;11313;50.116;8.424;2023-06-22T13:12:23;23.70;56.10
22290;DHT22;11313;50.116;8.424;2023-06-22T13:15:06;23.70;56.10
22290;DHT22;11313;50.116;8.424;2023-06-22T13:17:32;23.70;56.10
22290;DHT22;11313;50.116;8.424;2023-06-22T13:19:58;23.70;56.10
22290;DHT22;11313;50.116;8.424;2023-06-22T13:24:54;23.70;56.30
22290;DHT22;11313;50.116;8.424;2023-06-22T13:27:23;23.70;56.40
22290;DHT22;11313;50.116;8.424;2023-06-22T13:29:48;23.70;56.40
22290;DHT22;11313;50.116;8.424;2023-06-22T13:32:14;23.70;57.00
22290;DHT22;11313;50.116;8.424;2023-06-22T13:34:43;23.70;56.40
22290;DHT22;11313;50.116;8.424;2023-06-22T13:37:21;23.70;56.40
22290;DHT22;11313;50.116;8.424;2023-06-22T13:39:46;23.70;56.40
22290;DHT22;11313;50.116;8.424;2023-06-22T13:42:12;23.70;56.40
22290;DHT22;11313;50.116;8.424;2023-06-22T13:44:37;23.70;56.50
22290;DHT22;11313;50.116;8.424;2023-06-22T13:47:03;23.70;56.50
22290;DHT22;11313;50.116;8.424;2023-06-22T13:49:30;23.70;56.70
22290;DHT22;11313;50.116;8.424;2023-06-22T13:51:55;23.80;56.70
22290;DHT22;11313;50.116;8.424;2023-06-22T13:54:21;23.70;56.60
22290;DHT22;11313;50.116;8.424;2023-06-22T13:56:49;23.70;56.70
22290;DHT22;11313;50.116;8.424;2023-06-22T13:59:14;23.70;56.80
22290;DHT22;11313;50.116;8.424;2023-06-22T14:01:40;23.70;56.80
22290;DHT22;11313;50.116;8.424;2023-06-22T14:04:10;23.70;56.80
22290;DHT22;11313;50.116;8.424;2023-06-22T14:06:36;23.70;56.80
22290;DHT22;11313;50.116;8.424;2023-06-22T14:09:01;23.70;56.80
22290;DHT22;11313;50.116;8.424;2023-06-22T14:11:27;23.70;56.80
22290;DHT22;11313;50.116;8.424;2023-06-22T14:13:53;23.70;56.90
22290;DHT22;11313;50.116;8.424;2023-06-22T14:16:21;23.80;57.00
22290;DHT22;11313;50.116;8.424;2023-06-22T14:18:46;23.70;56.90
22290;DHT22;11313;50.116;8.424;2023-06-22T14:21:12;23.70;56.90
22290;DHT22;11313;50.116;8.424;2023-06-22T14:23:37;23.70;56.90
22290;DHT22;11313;50.116;8.424;2023-06-22T14:26:03;23.70;56.90
22290;DHT22;11313;50.116;8.424;2023-06-22T14:28:29;23.70;56.90
22290;DHT22;11313;50.116;8.424;2023-06-22T14:30:54;23.70;57.00
22290;DHT22;11313;50.116;8.424;2023-06-22T14:33:21;23.70;57.00
22290;DHT22;11313;50.116;8.424;2023-06-22T14:35:47;23.70;57.00
22290;DHT22;11313;50.116;8.424;2023-06-22T14:38:13;23.70;57.00
22290;DHT22;11313;50.116;8.424;2023-06-22T14:40:38;23.70;57.00
22290;DHT22;11313;50.116;8.424;2023-06-22T14:43:04;23.70;57.00
22290;DHT22;11313;50.116;8.424;2023-06-22T14:45:29;23.60;56.90
22290;DHT22;11313;50.116;8.424;2023-06-22T14:47:55;23.70;57.00
22290;DHT22;11313;50.116;8.424;2023-06-22T14:50:20;23.70;57.00
22290;DHT22;11313;50.116;8.424;2023-06-22T14:52:46;23.70;57.10
22290;DHT22;11313;50.116;8.424;2023-06-22T14:55:11;23.70;57.00
22290;DHT22;11313;50.116;8.424;2023-06-22T14:57:37;23.70;56.90
22290;DHT22;11313;50.116;8.424;2023-06-22T15:00:03;23.60;56.90
22290;DHT22;11313;50.116;8.424;2023-06-22T15:02:31;23.60;56.90
22290;DHT22;11313;50.116;8.424;2023-06-22T15:04:59;23.70;57.00
22290;DHT22;11313;50.116;8.424;2023-06-22T15:27:45;23.80;56.50
22290;DHT22;11313;50.116;8.424;2023-06-22T15:30:14;23.80;56.40
22290;DHT22;11313;50.116;8.424;2023-06-22T15:47:10;23.80;56.40
22290;DHT22;11313;50.116;8.424;2023-06-22T15:49:49;23.80;56.40
22290;DHT22;11313;50.116;8.424;2023-06-22T15:52:39;23.80;56.30
22290;DHT22;11313;50.116;8.424;2023-06-22T15:55:27;23.90;56.30
22290;DHT22;11313;50.116;8.424;2023-06-22T16:01:09;23.80;56.10
22290;DHT22;11313;50.116;8.424;2023-06-22T16:03:46;23.80;56.10
22290;DHT22;11313;50.116;8.424;2023-06-22T16:12:24;23.80;56.30
22290;DHT22;11313;50.116;8.424;2023-06-22T16:14:52;23.80;56.20
22290;DHT22;11313;50.116;8.424;2023-06-22T16:17:17;23.80;56.10
22290;DHT22;11313;50.116;8.424;2023-06-22T16:19:43;23.80;56.20
22290;DHT22;11313;50.116;8.424;2023-06-22T16:22:08;23.80;56.70
22290;DHT22;11313;50.116;8.424;2023-06-22T16:24:34;23.90;56.90
22290;DHT22;11313;50.116;8.424;2023-06-22T16:27:00;23.90;56.70